West Redding, Connecticut
Current Conditions -  °F | °C
As of 9:53 AM on Thursday 30 Oct 2014 (Local Time) from KDXR Reporting Station
Broken Clouds Broken Clouds  
Wind Chill: 46°   Ceiling: 7000
Heat Index: 46°   Visibility: 9mi
Dew Point: 42°   Wind: 0mph
Humidity: 86%   Direction: NA
Pressure: 30"   Gusts: NA
Location:  41.3054°N, 73.393°W
Report Text: KDXR 301353Z 00000KT 9SM BKN070 08/06 A3000 RMK AO2 SLP158 T00780056
Loading
Personal Weather Stations






























Interactive Weather Map
Tropical Storm Tracking
New forecast layout! Learn more

10-Day Weather Forecast

Advertisements
Track Severe Weather on mobile